Terminal Aerodrome Forecast
Issued by NWS Blacksburg, VA

Current Version | Previous Version | Graphics & Text | Print | Product List | Glossary On
Versions: 1 2 3 4 5 6 7 8 9 10 11 12 13 14 15 16
000
FTUS41 KRNK 291731
TAFBLF
TAF
KBLF 291731Z 2918/3018 24008G16KT P6SM SCT040 BKN250
     FM300000 20006KT P6SM SCT070
     FM301700 20008G16KT P6SM SCT250=

USA.gov is the U.S. government's official web portal to all federal, state and local government web resources and services.